Time,TemperatureF,DewpointF,PressureIn,WindDirection,WindDirectionDegrees,WindSpeedMPH,WindSpeedGustMPH,Humidity,HourlyPrecipIn,Conditions,Clouds,dailyrainin,SoftwareType,DateUTC
2013-05-11 00:02:00,39.0,27.0,30.37,North,355,0.0,-999.0,63,-99.99,,,-99.99,,2013-05-11 06:02:00,
2013-05-11 00:12:00,39.0,27.0,30.37,North,355,0.0,-999.0,63,-99.99,,,-99.99,,2013-05-11 06:12:00,
2013-05-11 00:21:00,38.0,28.0,30.38,North,355,0.0,-999.0,67,-99.99,,,-99.99,,2013-05-11 06:21:00,
2013-05-11 00:31:00,39.0,29.0,30.38,North,355,0.0,-999.0,68,-99.99,,,-99.99,,2013-05-11 06:31:00,
2013-05-11 00:42:00,40.0,29.0,30.39,North,355,0.0,-999.0,64,-99.99,,,-99.99,,2013-05-11 06:42:00,
2013-05-11 00:52:00,40.0,29.0,30.39,North,355,0.0,-999.0,64,-99.99,,,-99.99,,2013-05-11 06:52:00,
2013-05-11 01:01:00,38.0,28.0,30.39,North,355,0.0,-999.0,68,-99.99,,,-99.99,,2013-05-11 07:01:00,
2013-05-11 01:11:00,38.0,28.0,30.39,North,355,0.0,-999.0,68,-99.99,,,-99.99,,2013-05-11 07:11:00,
2013-05-11 01:21:00,38.0,27.0,30.40,North,355,0.0,-999.0,65,-99.99,,,-99.99,,2013-05-11 07:21:00,
2013-05-11 01:31:00,38.0,30.0,30.40,NNW,338,3.0,-999.0,73,-99.99,,,-99.99,,2013-05-11 07:31:00,
2013-05-11 01:41:00,38.0,30.0,30.40,NNW,338,3.0,-999.0,73,-99.99,,,-99.99,,2013-05-11 07:41:00,
2013-05-11 01:52:00,37.0,29.0,30.40,NNW,339,1.0,-999.0,72,-99.99,,,-99.99,,2013-05-11 07:52:00,
2013-05-11 02:01:00,36.0,28.0,30.41,NE,49,0.0,-999.0,73,-99.99,,,-99.99,,2013-05-11 08:01:00,
2013-05-11 02:11:00,36.0,28.0,30.41,NE,49,0.0,-999.0,73,-99.99,,,-99.99,,2013-05-11 08:11:00,
2013-05-11 02:21:00,37.0,29.0,30.41,NE,49,1.0,-999.0,72,-99.99,,,-99.99,,2013-05-11 08:21:00,
2013-05-11 02:31:00,37.0,29.0,30.41,NE,49,0.0,-999.0,72,-99.99,,,-99.99,,2013-05-11 08:31:00,
2013-05-11 02:42:00,37.0,29.0,30.42,NW,321,0.0,-999.0,72,-99.99,,,-99.99,,2013-05-11 08:42:00,
2013-05-11 02:52:00,37.0,29.0,30.42,NW,321,0.0,-999.0,72,-99.99,,,-99.99,,2013-05-11 08:52:00,
2013-05-11 03:01:00,38.0,29.0,30.42,NW,323,1.0,-999.0,70,-99.99,,,-99.99,,2013-05-11 09:01:00,
2013-05-11 03:11:00,38.0,29.0,30.42,NW,323,1.0,-999.0,70,-99.99,,,-99.99,,2013-05-11 09:11:00,
2013-05-11 03:21:00,39.0,30.0,30.42,NNE,24,3.0,-999.0,70,-99.99,,,-99.99,,2013-05-11 09:21:00,
2013-05-11 03:32:00,38.0,29.0,30.42,North,5,1.0,-999.0,70,-99.99,,,-99.99,,2013-05-11 09:32:00,
2013-05-11 03:42:00,38.0,29.0,30.42,NNE,19,1.0,-999.0,70,-99.99,,,-99.99,,2013-05-11 09:42:00,
2013-05-11 03:52:00,38.0,29.0,30.42,NNE,19,1.0,-999.0,70,-99.99,,,-99.99,,2013-05-11 09:52:00,
2013-05-11 04:02:00,37.0,29.0,30.42,NNE,19,0.0,-999.0,73,-99.99,,,-99.99,,2013-05-11 10:02:00,
2013-05-11 04:12:00,37.0,29.0,30.42,NNE,19,0.0,-999.0,73,-99.99,,,-99.99,,2013-05-11 10:12:00,
2013-05-11 04:22:00,36.0,28.0,30.42,NNE,19,0.0,-999.0,73,-99.99,,,-99.99,,2013-05-11 10:22:00,
2013-05-11 04:32:00,33.0,27.0,30.43,NNE,19,0.0,-999.0,78,-99.99,,,-99.99,,2013-05-11 10:32:00,
2013-05-11 04:42:00,33.0,27.0,30.43,NNE,19,0.0,-999.0,78,-99.99,,,-99.99,,2013-05-11 10:42:00,
2013-05-11 04:52:00,33.0,27.0,30.43,NNE,19,0.0,-999.0,78,-99.99,,,-99.99,,2013-05-11 10:52:00,
2013-05-11 05:02:00,32.0,27.0,30.44,NNE,19,0.0,-999.0,80,-99.99,,,-99.99,,2013-05-11 11:02:00,
2013-05-11 05:11:00,32.0,27.0,30.44,NNE,19,0.0,-999.0,80,-99.99,,,-99.99,,2013-05-11 11:11:00,
2013-05-11 05:21:00,31.0,26.0,30.42,NNE,19,1.0,-999.0,82,-99.99,,,-99.99,,2013-05-11 11:21:00,
2013-05-11 05:31:00,31.0,27.0,30.42,NNE,19,1.0,-999.0,85,-99.99,,,-99.99,,2013-05-11 11:31:00,
2013-05-11 05:42:00,31.0,26.0,30.42,NNE,19,0.0,-999.0,83,-99.99,,,-99.99,,2013-05-11 11:42:00,
2013-05-11 05:52:00,31.0,26.0,30.42,NNE,19,0.0,-999.0,83,-99.99,,,-99.99,,2013-05-11 11:52:00,
2013-05-11 06:01:00,31.0,26.0,30.42,NNE,19,0.0,-999.0,83,-99.99,,,-99.99,,2013-05-11 12:01:00,
2013-05-11 06:11:00,31.0,26.0,30.42,NNE,19,0.0,-999.0,83,-99.99,,,-99.99,,2013-05-11 12:11:00,
2013-05-11 06:21:00,31.0,27.0,30.42,NNE,19,0.0,-999.0,86,-99.99,,,-99.99,,2013-05-11 12:21:00,
2013-05-11 06:31:00,31.0,26.0,30.42,NNE,19,0.0,-999.0,83,-99.99,,,-99.99,,2013-05-11 12:31:00,
2013-05-11 06:41:00,31.0,27.0,30.43,WNW,301,0.0,-999.0,85,-99.99,,,-99.99,,2013-05-11 12:41:00,
2013-05-11 06:51:00,31.0,27.0,30.43,WNW,301,0.0,-999.0,85,-99.99,,,-99.99,,2013-05-11 12:51:00,
2013-05-11 07:01:00,32.0,28.0,30.44,WNW,301,0.0,-999.0,85,-99.99,,,-99.99,,2013-05-11 13:01:00,
2013-05-11 07:11:00,32.0,28.0,30.44,WNW,301,0.0,-999.0,85,-99.99,,,-99.99,,2013-05-11 13:11:00,
2013-05-11 07:21:00,34.0,30.0,30.43,WNW,301,0.0,-999.0,85,-99.99,,,-99.99,,2013-05-11 13:21:00,
2013-05-11 07:31:00,36.0,31.0,30.43,WNW,301,0.0,-999.0,83,-99.99,,,-99.99,,2013-05-11 13:31:00,
2013-05-11 07:41:00,39.0,32.0,30.43,WNW,301,0.0,-999.0,76,-99.99,,,-99.99,,2013-05-11 13:41:00,
2013-05-11 07:52:00,39.0,32.0,30.43,WNW,301,0.0,-999.0,76,-99.99,,,-99.99,,2013-05-11 13:52:00,
2013-05-11 08:01:00,42.0,32.0,30.43,WNW,301,0.0,-999.0,68,-99.99,,,-99.99,,2013-05-11 14:01:00,
2013-05-11 08:21:00,43.0,32.0,30.45,WNW,301,0.0,-999.0,65,-99.99,,,-99.99,,2013-05-11 14:21:00,
2013-05-11 08:32:00,45.0,32.0,30.44,SE,131,0.0,-999.0,61,-99.99,,,-99.99,,2013-05-11 14:32:00,
2013-05-11 08:41:00,47.0,33.0,30.44,South,188,0.0,-999.0,58,-99.99,,,-99.99,,2013-05-11 14:41:00,
2013-05-11 09:01:00,48.0,33.0,30.44,SE,141,0.0,-999.0,55,-99.99,,,-99.99,,2013-05-11 15:01:00,
2013-05-11 09:11:00,50.0,33.0,30.43,East,80,0.0,-999.0,51,-99.99,,,-99.99,,2013-05-11 15:11:00,
2013-05-11 09:21:00,50.0,33.0,30.43,East,80,0.0,-999.0,51,-99.99,,,-99.99,,2013-05-11 15:21:00,
2013-05-11 09:32:00,50.0,33.0,30.42,WSW,242,1.0,-999.0,51,-99.99,,,-99.99,,2013-05-11 15:32:00,
2013-05-11 09:42:00,51.0,33.0,30.42,South,177,2.0,-999.0,49,-99.99,,,-99.99,,2013-05-11 15:42:00,
2013-05-11 09:53:00,51.0,33.0,30.42,South,177,2.0,-999.0,49,-99.99,,,-99.99,,2013-05-11 15:53:00,
2013-05-11 10:02:00,52.0,32.0,30.41,South,191,2.0,-999.0,47,-99.99,,,-99.99,,2013-05-11 16:02:00,
2013-05-11 10:12:00,52.0,32.0,30.41,South,191,2.0,-999.0,47,-99.99,,,-99.99,,2013-05-11 16:12:00,
2013-05-11 10:22:00,54.0,34.0,30.40,ESE,104,4.0,-999.0,47,-99.99,,,-99.99,,2013-05-11 16:22:00,
2013-05-11 10:32:00,55.0,34.0,30.40,South,182,2.0,-999.0,45,-99.99,,,-99.99,,2013-05-11 16:32:00,
2013-05-11 10:42:00,57.0,35.0,30.39,South,173,3.0,-999.0,43,-99.99,,,-99.99,,2013-05-11 16:42:00,
2013-05-11 10:52:00,57.0,35.0,30.39,South,173,3.0,-999.0,43,-99.99,,,-99.99,,2013-05-11 16:52:00,
2013-05-11 11:02:00,58.0,35.0,30.39,South,169,2.0,-999.0,42,-99.99,,,-99.99,,2013-05-11 17:02:00,
2013-05-11 11:11:00,58.0,35.0,30.39,South,169,2.0,-999.0,42,-99.99,,,-99.99,,2013-05-11 17:11:00,
2013-05-11 11:22:00,60.0,36.0,30.38,SSW,198,4.0,-999.0,41,-99.99,,,-99.99,,2013-05-11 17:22:00,
2013-05-11 11:31:00,61.0,35.0,30.38,South,191,4.0,-999.0,38,-99.99,,,-99.99,,2013-05-11 17:31:00,
2013-05-11 11:41:00,62.0,35.0,30.37,SSE,149,4.0,-999.0,37,-99.99,,,-99.99,,2013-05-11 17:41:00,
2013-05-11 11:52:00,62.0,35.0,30.37,SSE,149,4.0,-999.0,37,-99.99,,,-99.99,,2013-05-11 17:52:00,
2013-05-11 12:01:00,63.0,36.0,30.37,SW,215,4.0,-999.0,36,-99.99,,,-99.99,,2013-05-11 18:01:00,
2013-05-11 12:11:00,63.0,36.0,30.37,SW,215,4.0,-999.0,36,-99.99,,,-99.99,,2013-05-11 18:11:00,
2013-05-11 12:21:00,65.0,36.0,30.35,SSW,196,4.0,-999.0,34,-99.99,,,-99.99,,2013-05-11 18:21:00,
2013-05-11 12:31:00,66.0,35.0,30.35,South,188,3.0,-999.0,32,-99.99,,,-99.99,,2013-05-11 18:31:00,
2013-05-11 12:41:00,67.0,35.0,30.34,SSW,192,6.0,-999.0,31,-99.99,,,-99.99,,2013-05-11 18:41:00,
2013-05-11 12:52:00,67.0,35.0,30.34,SSW,192,6.0,-999.0,31,-99.99,,,-99.99,,2013-05-11 18:52:00,
2013-05-11 13:01:00,68.0,33.0,30.35,ESE,111,4.0,-999.0,27,-99.99,,,-99.99,,2013-05-11 19:01:00,
2013-05-11 13:11:00,68.0,33.0,30.35,ESE,111,4.0,-999.0,27,-99.99,,,-99.99,,2013-05-11 19:11:00,
2013-05-11 13:21:00,68.0,34.0,30.35,South,185,5.0,-999.0,28,-99.99,,,-99.99,,2013-05-11 19:21:00,
2013-05-11 13:31:00,67.0,33.0,30.34,SE,144,4.0,-999.0,28,-99.99,,,-99.99,,2013-05-11 19:31:00,
2013-05-11 13:41:00,68.0,34.0,30.33,SE,142,5.0,-999.0,28,-99.99,,,-99.99,,2013-05-11 19:41:00,
2013-05-11 13:52:00,68.0,34.0,30.33,SE,142,5.0,-999.0,28,-99.99,,,-99.99,,2013-05-11 19:52:00,
2013-05-11 14:01:00,67.0,30.0,30.33,SW,227,7.0,-999.0,25,-99.99,,,-99.99,,2013-05-11 20:01:00,
2013-05-11 14:11:00,67.0,30.0,30.33,SW,227,7.0,-999.0,25,-99.99,,,-99.99,,2013-05-11 20:11:00,
2013-05-11 14:22:00,67.0,31.0,30.33,West,261,4.0,-999.0,26,-99.99,,,-99.99,,2013-05-11 20:22:00,
2013-05-11 14:32:00,68.0,31.0,30.33,WNW,289,4.0,-999.0,25,-99.99,,,-99.99,,2013-05-11 20:32:00,
2013-05-11 14:42:00,68.0,30.0,30.33,WSW,237,7.0,-999.0,24,-99.99,,,-99.99,,2013-05-11 20:42:00,
2013-05-11 14:52:00,68.0,30.0,30.33,WSW,237,7.0,-999.0,24,-99.99,,,-99.99,,2013-05-11 20:52:00,
2013-05-11 15:01:00,70.0,30.0,30.33,WNW,297,7.0,-999.0,23,-99.99,,,-99.99,,2013-05-11 21:01:00,
2013-05-11 15:11:00,70.0,30.0,30.33,WNW,297,7.0,-999.0,23,-99.99,,,-99.99,,2013-05-11 21:11:00,
2013-05-11 15:21:00,71.0,30.0,30.32,WNW,294,6.0,-999.0,22,-99.99,,,-99.99,,2013-05-11 21:21:00,
2013-05-11 15:33:00,70.0,29.0,30.32,SW,215,4.0,-999.0,22,-99.99,,,-99.99,,2013-05-11 21:33:00,
2013-05-11 15:43:00,70.0,29.0,30.32,SW,215,4.0,-999.0,22,-99.99,,,-99.99,,2013-05-11 21:43:00,
2013-05-11 15:52:00,68.0,27.0,30.29,West,262,9.0,-999.0,21,-99.99,,,-99.99,,2013-05-11 21:52:00,
2013-05-11 16:02:00,69.0,27.0,30.29,WNW,295,9.0,-999.0,21,-99.99,,,-99.99,,2013-05-11 22:02:00,
2013-05-11 16:12:00,69.0,27.0,30.29,WNW,295,9.0,-999.0,21,-99.99,,,-99.99,,2013-05-11 22:12:00,
2013-05-11 16:22:00,69.0,27.0,30.29,West,271,10.0,-999.0,21,-99.99,,,-99.99,,2013-05-11 22:22:00,
2013-05-11 16:32:00,70.0,27.0,30.28,NW,304,9.0,-999.0,20,-99.99,,,-99.99,,2013-05-11 22:32:00,
2013-05-11 16:42:00,70.0,27.0,30.28,NW,304,9.0,-999.0,20,-99.99,,,-99.99,,2013-05-11 22:42:00,
2013-05-11 16:52:00,70.0,26.0,30.28,WSW,238,8.0,-999.0,19,-99.99,,,-99.99,,2013-05-11 22:52:00,
2013-05-11 17:02:00,70.0,28.0,30.27,NW,316,8.0,-999.0,21,-99.99,,,-99.99,,2013-05-11 23:02:00,
2013-05-11 17:11:00,70.0,28.0,30.27,NW,316,8.0,-999.0,21,-99.99,,,-99.99,,2013-05-11 23:11:00,
2013-05-11 17:21:00,70.0,26.0,30.28,West,265,10.0,-999.0,19,-99.99,,,-99.99,,2013-05-11 23:21:00,
2013-05-11 17:31:00,70.0,26.0,30.28,West,259,10.0,-999.0,19,-99.99,,,-99.99,,2013-05-11 23:31:00,
2013-05-11 17:42:00,70.0,27.0,30.28,NW,315,8.0,-999.0,20,-99.99,,,-99.99,,2013-05-11 23:42:00,
2013-05-11 17:52:00,70.0,27.0,30.28,NW,315,8.0,-999.0,20,-99.99,,,-99.99,,2013-05-11 23:52:00,
2013-05-11 18:01:00,67.0,26.0,30.28,WNW,289,8.0,-999.0,21,-99.99,,,-99.99,,2013-05-12 00:01:00,
2013-05-11 18:11:00,67.0,26.0,30.28,WNW,289,8.0,-999.0,21,-99.99,,,-99.99,,2013-05-12 00:11:00,
2013-05-11 18:21:00,68.0,28.0,30.28,NW,323,4.0,-999.0,22,-99.99,,,-99.99,,2013-05-12 00:21:00,
2013-05-11 18:32:00,68.0,28.0,30.28,WSW,242,4.0,-999.0,22,-99.99,,,-99.99,,2013-05-12 00:32:00,
2013-05-11 18:41:00,68.0,31.0,30.27,North,355,7.0,-999.0,25,-99.99,,,-99.99,,2013-05-12 00:41:00,
2013-05-11 18:52:00,68.0,31.0,30.27,North,355,7.0,-999.0,25,-99.99,,,-99.99,,2013-05-12 00:52:00,
2013-05-11 19:01:00,67.0,29.0,30.27,WNW,290,6.0,-999.0,24,-99.99,,,-99.99,,2013-05-12 01:01:00,
2013-05-11 19:11:00,67.0,29.0,30.27,WNW,290,6.0,-999.0,24,-99.99,,,-99.99,,2013-05-12 01:11:00,
2013-05-11 19:21:00,67.0,30.0,30.27,West,269,3.0,-999.0,25,-99.99,,,-99.99,,2013-05-12 01:21:00,
2013-05-11 19:31:00,65.0,30.0,30.27,WNW,289,1.0,-999.0,27,-99.99,,,-99.99,,2013-05-12 01:31:00,
2013-05-11 19:41:00,64.0,29.0,30.27,West,268,4.0,-999.0,27,-99.99,,,-99.99,,2013-05-12 01:41:00,
2013-05-11 19:52:00,64.0,29.0,30.27,West,268,4.0,-999.0,27,-99.99,,,-99.99,,2013-05-12 01:52:00,
2013-05-11 20:01:00,62.0,29.0,30.27,West,261,0.0,-999.0,29,-99.99,,,-99.99,,2013-05-12 02:01:00,
2013-05-11 20:11:00,62.0,29.0,30.27,West,261,0.0,-999.0,29,-99.99,,,-99.99,,2013-05-12 02:11:00,
2013-05-11 20:21:00,61.0,31.0,30.27,West,261,0.0,-999.0,32,-99.99,,,-99.99,,2013-05-12 02:21:00,
2013-05-11 20:31:00,61.0,32.0,30.27,West,280,0.0,-999.0,34,-99.99,,,-99.99,,2013-05-12 02:31:00,
2013-05-11 20:41:00,60.0,33.0,30.29,West,280,0.0,-999.0,36,-99.99,,,-99.99,,2013-05-12 02:41:00,
2013-05-11 20:52:00,60.0,33.0,30.29,West,280,0.0,-999.0,36,-99.99,,,-99.99,,2013-05-12 02:52:00,
2013-05-11 21:01:00,58.0,32.0,30.30,West,280,0.0,-999.0,37,-99.99,,,-99.99,,2013-05-12 03:01:00,
2013-05-11 21:11:00,57.0,33.0,30.31,West,269,1.0,-999.0,40,-99.99,,,-99.99,,2013-05-12 03:11:00,
2013-05-11 21:21:00,57.0,33.0,30.31,West,269,1.0,-999.0,40,-99.99,,,-99.99,,2013-05-12 03:21:00,
2013-05-11 21:32:00,57.0,34.0,30.31,North,360,1.0,-999.0,41,-99.99,,,-99.99,,2013-05-12 03:32:00,
2013-05-11 21:42:00,57.0,34.0,30.31,North,360,1.0,-999.0,41,-99.99,,,-99.99,,2013-05-12 03:42:00,
2013-05-11 21:53:00,56.0,33.0,30.31,North,360,0.0,-999.0,42,-99.99,,,-99.99,,2013-05-12 03:53:00,
2013-05-11 22:02:00,-999.0,-99.9,30.30,North,360,0.0,-999.0,43,-99.99,,,-99.99,,2013-05-12 04:02:00,
2013-05-11 22:12:00,55.0,33.0,30.30,North,360,0.0,-999.0,43,-99.99,,,-99.99,,2013-05-12 04:12:00,
2013-05-11 22:22:00,53.0,33.0,30.32,West,269,0.0,-999.0,46,-99.99,,,-99.99,,2013-05-12 04:22:00,
2013-05-11 22:32:00,53.0,33.0,30.32,West,269,0.0,-999.0,47,-99.99,,,-99.99,,2013-05-12 04:32:00,
2013-05-11 22:42:00,52.0,33.0,30.32,West,269,0.0,-999.0,48,-99.99,,,-99.99,,2013-05-12 04:42:00,
2013-05-11 22:52:00,52.0,33.0,30.32,West,269,0.0,-999.0,48,-99.99,,,-99.99,,2013-05-12 04:52:00,
2013-05-11 23:02:00,51.0,33.0,30.31,ESE,113,0.0,-999.0,50,-99.99,,,-99.99,,2013-05-12 05:02:00,
2013-05-11 23:11:00,51.0,33.0,30.31,ESE,113,0.0,-999.0,50,-99.99,,,-99.99,,2013-05-12 05:11:00,
2013-05-11 23:21:00,50.0,33.0,30.32,ESE,111,0.0,-999.0,51,-99.99,,,-99.99,,2013-05-12 05:21:00,
2013-05-11 23:31:00,50.0,33.0,30.32,WSW,243,0.0,-999.0,52,-99.99,,,-99.99,,2013-05-12 05:31:00,
2013-05-11 23:42:00,50.0,33.0,30.32,WSW,243,0.0,-999.0,52,-99.99,,,-99.99,,2013-05-12 05:42:00,
2013-05-11 23:51:00,48.0,33.0,30.31,NE,45,1.0,-999.0,56,-99.99,,,-99.99,,2013-05-12 05:51:00,